sensor_id;sensor_type;location;lat;lon;timestamp;temperature;humidity
3001;DHT22;1510;51.072;6.678;2022-08-19T00:00:49;16.50;99.90
3001;DHT22;1510;51.072;6.678;2022-08-19T00:03:17;16.50;99.90
3001;DHT22;1510;51.072;6.678;2022-08-19T00:05:44;16.40;99.30
3001;DHT22;1510;51.072;6.678;2022-08-19T00:08:11;16.40;99.60
3001;DHT22;1510;51.072;6.678;2022-08-19T00:10:37;16.20;99.90
3001;DHT22;1510;51.072;6.678;2022-08-19T00:13:04;16.20;99.90
3001;DHT22;1510;51.072;6.678;2022-08-19T00:15:31;16.10;99.90
3001;DHT22;1510;51.072;6.678;2022-08-19T00:17:58;16.20;99.90
3001;DHT22;1510;51.072;6.678;2022-08-19T00:20:26;16.20;99.90
3001;DHT22;1510;51.072;6.678;2022-08-19T00:22:53;16.10;99.90
3001;DHT22;1510;51.072;6.678;2022-08-19T00:25:19;16.20;99.90
3001;DHT22;1510;51.072;6.678;2022-08-19T00:27:46;16.00;99.90
3001;DHT22;1510;51.072;6.678;2022-08-19T00:30:13;16.00;99.90
3001;DHT22;1510;51.072;6.678;2022-08-19T00:32:40;16.00;99.90
3001;DHT22;1510;51.072;6.678;2022-08-19T00:35:08;16.00;99.90
3001;DHT22;1510;51.072;6.678;2022-08-19T00:37:37;15.80;99.90
3001;DHT22;1510;51.072;6.678;2022-08-19T00:40:09;15.80;99.90
3001;DHT22;1510;51.072;6.678;2022-08-19T00:42:36;15.90;99.90
3001;DHT22;1510;51.072;6.678;2022-08-19T00:45:11;15.90;99.90
3001;DHT22;1510;51.072;6.678;2022-08-19T00:47:38;15.80;99.90
3001;DHT22;1510;51.072;6.678;2022-08-19T00:50:06;15.70;99.90
3001;DHT22;1510;51.072;6.678;2022-08-19T00:52:37;15.80;99.90
3001;DHT22;1510;51.072;6.678;2022-08-19T00:55:07;15.60;99.90
3001;DHT22;1510;51.072;6.678;2022-08-19T00:57:38;15.60;99.90
3001;DHT22;1510;51.072;6.678;2022-08-19T01:00:08;15.50;99.90
3001;DHT22;1510;51.072;6.678;2022-08-19T01:02:35;15.50;99.90
3001;DHT22;1510;51.072;6.678;2022-08-19T01:05:05;15.40;99.90
3001;DHT22;1510;51.072;6.678;2022-08-19T01:07:33;15.30;99.90
3001;DHT22;1510;51.072;6.678;2022-08-19T01:10:03;15.60;99.90
3001;DHT22;1510;51.072;6.678;2022-08-19T01:12:30;15.60;99.90
3001;DHT22;1510;51.072;6.678;2022-08-19T01:14:57;15.80;99.90
3001;DHT22;1510;51.072;6.678;2022-08-19T01:17:25;15.70;99.90
3001;DHT22;1510;51.072;6.678;2022-08-19T01:19:52;15.70;99.90
3001;DHT22;1510;51.072;6.678;2022-08-19T01:22:26;15.70;99.90
3001;DHT22;1510;51.072;6.678;2022-08-19T01:24:53;15.60;99.90
3001;DHT22;1510;51.072;6.678;2022-08-19T01:27:20;15.50;99.90
3001;DHT22;1510;51.072;6.678;2022-08-19T01:29:47;15.40;99.90
3001;DHT22;1510;51.072;6.678;2022-08-19T01:32:16;15.40;99.90
3001;DHT22;1510;51.072;6.678;2022-08-19T01:34:42;15.40;99.90
3001;DHT22;1510;51.072;6.678;2022-08-19T01:37:13;15.40;99.90
3001;DHT22;1510;51.072;6.678;2022-08-19T01:39:42;15.30;99.90
3001;DHT22;1510;51.072;6.678;2022-08-19T01:42:09;15.30;99.90
3001;DHT22;1510;51.072;6.678;2022-08-19T01:44:38;15.30;99.90
3001;DHT22;1510;51.072;6.678;2022-08-19T01:47:06;15.40;99.90
3001;DHT22;1510;51.072;6.678;2022-08-19T01:49:35;15.40;99.90
3001;DHT22;1510;51.072;6.678;2022-08-19T01:52:03;15.30;99.90
3001;DHT22;1510;51.072;6.678;2022-08-19T01:54:30;15.40;99.90
3001;DHT22;1510;51.072;6.678;2022-08-19T01:57:02;15.30;99.90
3001;DHT22;1510;51.072;6.678;2022-08-19T01:59:30;15.20;99.90
3001;DHT22;1510;51.072;6.678;2022-08-19T02:01:57;15.20;99.90
3001;DHT22;1510;51.072;6.678;2022-08-19T02:04:24;15.10;99.90
3001;DHT22;1510;51.072;6.678;2022-08-19T02:06:51;15.00;99.90
3001;DHT22;1510;51.072;6.678;2022-08-19T02:09:18;15.00;99.90
3001;DHT22;1510;51.072;6.678;2022-08-19T02:11:45;15.10;99.90
3001;DHT22;1510;51.072;6.678;2022-08-19T02:14:13;15.00;99.90
3001;DHT22;1510;51.072;6.678;2022-08-19T02:16:39;14.90;99.90
3001;DHT22;1510;51.072;6.678;2022-08-19T02:19:06;15.10;99.90
3001;DHT22;1510;51.072;6.678;2022-08-19T02:21:34;15.10;99.90
3001;DHT22;1510;51.072;6.678;2022-08-19T02:24:01;15.20;99.90
3001;DHT22;1510;51.072;6.678;2022-08-19T02:26:28;15.00;99.90
3001;DHT22;1510;51.072;6.678;2022-08-19T02:28:55;15.10;99.90
3001;DHT22;1510;51.072;6.678;2022-08-19T02:31:25;15.10;99.90
3001;DHT22;1510;51.072;6.678;2022-08-19T02:33:53;15.10;99.90
3001;DHT22;1510;51.072;6.678;2022-08-19T02:36:21;15.00;99.90
3001;DHT22;1510;51.072;6.678;2022-08-19T02:38:48;15.00;99.90
3001;DHT22;1510;51.072;6.678;2022-08-19T02:41:16;14.90;99.90
3001;DHT22;1510;51.072;6.678;2022-08-19T02:43:43;14.90;99.90
3001;DHT22;1510;51.072;6.678;2022-08-19T02:46:12;14.90;99.90
3001;DHT22;1510;51.072;6.678;2022-08-19T02:48:40;15.00;99.90
3001;DHT22;1510;51.072;6.678;2022-08-19T02:51:07;14.80;99.90
3001;DHT22;1510;51.072;6.678;2022-08-19T02:53:34;14.80;99.90
3001;DHT22;1510;51.072;6.678;2022-08-19T02:56:01;14.80;99.90
3001;DHT22;1510;51.072;6.678;2022-08-19T02:58:28;14.70;99.90
3001;DHT22;1510;51.072;6.678;2022-08-19T03:00:56;14.70;99.90
3001;DHT22;1510;51.072;6.678;2022-08-19T03:03:23;14.70;99.90
3001;DHT22;1510;51.072;6.678;2022-08-19T03:05:51;14.70;99.90
3001;DHT22;1510;51.072;6.678;2022-08-19T03:08:18;14.60;99.90
3001;DHT22;1510;51.072;6.678;2022-08-19T03:10:47;14.60;99.90
3001;DHT22;1510;51.072;6.678;2022-08-19T03:13:16;14.60;99.90
3001;DHT22;1510;51.072;6.678;2022-08-19T03:15:44;14.60;99.90
3001;DHT22;1510;51.072;6.678;2022-08-19T03:18:11;14.60;99.90
3001;DHT22;1510;51.072;6.678;2022-08-19T03:20:42;14.50;99.90
3001;DHT22;1510;51.072;6.678;2022-08-19T03:23:10;14.50;99.90
3001;DHT22;1510;51.072;6.678;2022-08-19T03:25:38;14.40;99.90
3001;DHT22;1510;51.072;6.678;2022-08-19T03:28:06;14.40;99.90
3001;DHT22;1510;51.072;6.678;2022-08-19T03:30:33;14.40;99.90
3001;DHT22;1510;51.072;6.678;2022-08-19T03:33:00;14.30;99.90
3001;DHT22;1510;51.072;6.678;2022-08-19T03:35:27;14.20;99.90
3001;DHT22;1510;51.072;6.678;2022-08-19T03:37:54;14.30;99.90
3001;DHT22;1510;51.072;6.678;2022-08-19T03:40:23;14.20;99.90
3001;DHT22;1510;51.072;6.678;2022-08-19T03:42:49;14.50;99.90
3001;DHT22;1510;51.072;6.678;2022-08-19T03:45:16;14.40;99.90
3001;DHT22;1510;51.072;6.678;2022-08-19T03:47:43;14.60;99.90
3001;DHT22;1510;51.072;6.678;2022-08-19T03:50:10;14.60;99.90
3001;DHT22;1510;51.072;6.678;2022-08-19T03:52:37;14.70;99.90
3001;DHT22;1510;51.072;6.678;2022-08-19T03:55:05;14.80;99.90
3001;DHT22;1510;51.072;6.678;2022-08-19T03:57:34;14.80;99.90
3001;DHT22;1510;51.072;6.678;2022-08-19T04:00:01;15.10;99.90
3001;DHT22;1510;51.072;6.678;2022-08-19T04:02:29;15.20;99.90
3001;DHT22;1510;51.072;6.678;2022-08-19T04:04:56;15.40;99.90
3001;DHT22;1510;51.072;6.678;2022-08-19T04:07:23;15.30;99.90
3001;DHT22;1510;51.072;6.678;2022-08-19T04:09:50;15.40;99.90
3001;DHT22;1510;51.072;6.678;2022-08-19T04:12:17;15.40;99.90
3001;DHT22;1510;51.072;6.678;2022-08-19T04:14:47;15.40;99.90
3001;DHT22;1510;51.072;6.678;2022-08-19T04:17:13;15.50;99.90
3001;DHT22;1510;51.072;6.678;2022-08-19T04:19:40;15.40;99.90
3001;DHT22;1510;51.072;6.678;2022-08-19T04:22:08;15.40;99.90
3001;DHT22;1510;51.072;6.678;2022-08-19T04:24:37;15.50;99.90
3001;DHT22;1510;51.072;6.678;2022-08-19T04:27:07;15.50;99.90
3001;DHT22;1510;51.072;6.678;2022-08-19T04:29:41;15.50;99.90
3001;DHT22;1510;51.072;6.678;2022-08-19T04:32:09;15.40;99.90
3001;DHT22;1510;51.072;6.678;2022-08-19T04:34:44;15.30;99.90
3001;DHT22;1510;51.072;6.678;2022-08-19T04:37:38;15.20;99.90
3001;DHT22;1510;51.072;6.678;2022-08-19T04:40:26;15.10;99.90
3001;DHT22;1510;51.072;6.678;2022-08-19T04:46:52;14.90;99.90
3001;DHT22;1510;51.072;6.678;2022-08-19T04:49:21;14.90;99.90
3001;DHT22;1510;51.072;6.678;2022-08-19T04:51:53;14.90;99.90
3001;DHT22;1510;51.072;6.678;2022-08-19T04:54:33;15.10;99.90
3001;DHT22;1510;51.072;6.678;2022-08-19T04:57:00;15.00;99.90
3001;DHT22;1510;51.072;6.678;2022-08-19T04:59:33;15.10;99.90
3001;DHT22;1510;51.072;6.678;2022-08-19T05:02:43;15.30;99.90
3001;DHT22;1510;51.072;6.678;2022-08-19T05:05:21;15.40;99.90
3001;DHT22;1510;51.072;6.678;2022-08-19T05:08:36;15.60;99.90
3001;DHT22;1510;51.072;6.678;2022-08-19T05:10:57;15.70;99.90
3001;DHT22;1510;51.072;6.678;2022-08-19T05:13:34;15.70;99.90
3001;DHT22;1510;51.072;6.678;2022-08-19T05:16:33;15.60;99.90
3001;DHT22;1510;51.072;6.678;2022-08-19T05:19:39;15.70;99.90
3001;DHT22;1510;51.072;6.678;2022-08-19T05:22:18;15.80;99.90
3001;DHT22;1510;51.072;6.678;2022-08-19T05:25:06;15.90;99.90
3001;DHT22;1510;51.072;6.678;2022-08-19T05:27:37;15.90;99.90
3001;DHT22;1510;51.072;6.678;2022-08-19T05:30:05;16.00;99.90
3001;DHT22;1510;51.072;6.678;2022-08-19T05:32:32;16.10;99.90
3001;DHT22;1510;51.072;6.678;2022-08-19T05:34:59;16.30;99.90
3001;DHT22;1510;51.072;6.678;2022-08-19T05:37:26;16.40;99.90
3001;DHT22;1510;51.072;6.678;2022-08-19T05:39:53;16.50;99.90
3001;DHT22;1510;51.072;6.678;2022-08-19T05:42:21;16.60;99.90
3001;DHT22;1510;51.072;6.678;2022-08-19T05:44:52;16.90;99.90
3001;DHT22;1510;51.072;6.678;2022-08-19T05:47:20;17.20;99.90
3001;DHT22;1510;51.072;6.678;2022-08-19T05:49:48;17.50;99.90
3001;DHT22;1510;51.072;6.678;2022-08-19T05:52:16;17.80;99.90
3001;DHT22;1510;51.072;6.678;2022-08-19T05:54:43;18.10;99.90
3001;DHT22;1510;51.072;6.678;2022-08-19T05:57:10;18.30;99.90
3001;DHT22;1510;51.072;6.678;2022-08-19T05:59:53;18.50;99.90
3001;DHT22;1510;51.072;6.678;2022-08-19T06:02:20;18.50;99.90
3001;DHT22;1510;51.072;6.678;2022-08-19T06:04:47;18.60;99.90
3001;DHT22;1510;51.072;6.678;2022-08-19T06:07:18;18.70;99.90
3001;DHT22;1510;51.072;6.678;2022-08-19T06:09:45;18.60;99.90
3001;DHT22;1510;51.072;6.678;2022-08-19T06:12:11;18.70;99.90
3001;DHT22;1510;51.072;6.678;2022-08-19T06:14:38;18.70;99.90
3001;DHT22;1510;51.072;6.678;2022-08-19T06:17:11;18.70;99.90
3001;DHT22;1510;51.072;6.678;2022-08-19T06:19:39;18.80;99.90
3001;DHT22;1510;51.072;6.678;2022-08-19T06:22:18;18.80;99.90
3001;DHT22;1510;51.072;6.678;2022-08-19T06:24:51;18.80;99.90
3001;DHT22;1510;51.072;6.678;2022-08-19T06:27:21;18.80;99.90
3001;DHT22;1510;51.072;6.678;2022-08-19T06:29:55;18.80;99.90
3001;DHT22;1510;51.072;6.678;2022-08-19T06:32:27;18.90;99.90
3001;DHT22;1510;51.072;6.678;2022-08-19T06:35:07;18.70;99.90
3001;DHT22;1510;51.072;6.678;2022-08-19T06:37:36;18.90;99.90
3001;DHT22;1510;51.072;6.678;2022-08-19T06:40:04;19.00;99.90
3001;DHT22;1510;51.072;6.678;2022-08-19T06:42:33;19.10;99.90
3001;DHT22;1510;51.072;6.678;2022-08-19T06:45:08;19.10;99.90
3001;DHT22;1510;51.072;6.678;2022-08-19T06:47:39;19.20;99.90
3001;DHT22;1510;51.072;6.678;2022-08-19T06:50:11;19.30;99.90
3001;DHT22;1510;51.072;6.678;2022-08-19T06:52:38;19.30;99.90
3001;DHT22;1510;51.072;6.678;2022-08-19T06:55:06;19.40;99.90
3001;DHT22;1510;51.072;6.678;2022-08-19T06:57:33;19.50;99.90
3001;DHT22;1510;51.072;6.678;2022-08-19T07:00:00;19.50;99.90
3001;DHT22;1510;51.072;6.678;2022-08-19T07:02:27;19.40;99.90
3001;DHT22;1510;51.072;6.678;2022-08-19T07:04:56;19.50;99.90
3001;DHT22;1510;51.072;6.678;2022-08-19T07:07:23;19.60;99.90
3001;DHT22;1510;51.072;6.678;2022-08-19T07:09:50;19.80;99.90
3001;DHT22;1510;51.072;6.678;2022-08-19T07:12:18;19.80;99.90
3001;DHT22;1510;51.072;6.678;2022-08-19T07:14:45;19.80;99.90
3001;DHT22;1510;51.072;6.678;2022-08-19T07:17:13;19.90;99.90
3001;DHT22;1510;51.072;6.678;2022-08-19T07:19:41;20.20;99.20
3001;DHT22;1510;51.072;6.678;2022-08-19T07:22:10;20.40;98.40
3001;DHT22;1510;51.072;6.678;2022-08-19T07:24:37;20.60;97.50
3001;DHT22;1510;51.072;6.678;2022-08-19T07:27:06;20.70;96.30
3001;DHT22;1510;51.072;6.678;2022-08-19T07:29:34;20.80;95.40
3001;DHT22;1510;51.072;6.678;2022-08-19T07:32:03;20.70;95.40
3001;DHT22;1510;51.072;6.678;2022-08-19T07:34:32;20.50;95.30
3001;DHT22;1510;51.072;6.678;2022-08-19T07:37:00;20.50;95.70
3001;DHT22;1510;51.072;6.678;2022-08-19T07:39:30;20.30;95.20
3001;DHT22;1510;51.072;6.678;2022-08-19T07:41:59;20.50;95.30
3001;DHT22;1510;51.072;6.678;2022-08-19T07:44:26;20.90;94.70
3001;DHT22;1510;51.072;6.678;2022-08-19T07:46:55;21.40;93.50
3001;DHT22;1510;51.072;6.678;2022-08-19T07:49:23;21.50;90.90
3001;DHT22;1510;51.072;6.678;2022-08-19T07:51:55;21.40;91.10
3001;DHT22;1510;51.072;6.678;2022-08-19T07:54:24;21.60;89.30
3001;DHT22;1510;51.072;6.678;2022-08-19T07:56:52;21.60;87.50
3001;DHT22;1510;51.072;6.678;2022-08-19T07:59:20;21.90;88.20
3001;DHT22;1510;51.072;6.678;2022-08-19T08:01:47;22.20;86.40
3001;DHT22;1510;51.072;6.678;2022-08-19T08:04:15;22.20;84.00
3001;DHT22;1510;51.072;6.678;2022-08-19T08:06:59;22.70;79.00
3001;DHT22;1510;51.072;6.678;2022-08-19T08:09:44;23.50;76.80
3001;DHT22;1510;51.072;6.678;2022-08-19T08:12:15;23.70;74.20
3001;DHT22;1510;51.072;6.678;2022-08-19T08:15:00;23.60;70.50
3001;DHT22;1510;51.072;6.678;2022-08-19T08:17:29;23.50;69.50
3001;DHT22;1510;51.072;6.678;2022-08-19T08:19:56;23.20;68.20
3001;DHT22;1510;51.072;6.678;2022-08-19T08:22:23;22.80;71.90
3001;DHT22;1510;51.072;6.678;2022-08-19T08:25:11;22.30;73.90
3001;DHT22;1510;51.072;6.678;2022-08-19T08:27:41;22.20;75.50
3001;DHT22;1510;51.072;6.678;2022-08-19T08:30:09;22.50;74.20
3001;DHT22;1510;51.072;6.678;2022-08-19T08:32:38;22.40;72.30
3001;DHT22;1510;51.072;6.678;2022-08-19T08:35:06;22.40;73.80
3001;DHT22;1510;51.072;6.678;2022-08-19T08:37:33;22.40;72.80
3001;DHT22;1510;51.072;6.678;2022-08-19T08:40:03;22.60;70.40
3001;DHT22;1510;51.072;6.678;2022-08-19T08:42:35;22.40;69.10
3001;DHT22;1510;51.072;6.678;2022-08-19T08:45:12;22.40;69.30
3001;DHT22;1510;51.072;6.678;2022-08-19T08:47:42;22.50;68.50
3001;DHT22;1510;51.072;6.678;2022-08-19T08:50:15;22.40;68.20
3001;DHT22;1510;51.072;6.678;2022-08-19T08:52:44;22.40;68.10
3001;DHT22;1510;51.072;6.678;2022-08-19T08:55:14;22.80;67.60
3001;DHT22;1510;51.072;6.678;2022-08-19T08:57:53;23.10;63.60
3001;DHT22;1510;51.072;6.678;2022-08-19T09:00:28;23.60;59.90
3001;DHT22;1510;51.072;6.678;2022-08-19T09:02:57;23.80;56.80
3001;DHT22;1510;51.072;6.678;2022-08-19T09:05:30;24.00;54.10
3001;DHT22;1510;51.072;6.678;2022-08-19T09:08:04;24.00;54.00
3001;DHT22;1510;51.072;6.678;2022-08-19T09:10:37;24.30;53.10
3001;DHT22;1510;51.072;6.678;2022-08-19T09:13:08;24.50;52.40
3001;DHT22;1510;51.072;6.678;2022-08-19T09:15:58;24.60;51.00
3001;DHT22;1510;51.072;6.678;2022-08-19T09:18:39;24.60;50.40
3001;DHT22;1510;51.072;6.678;2022-08-19T09:21:28;25.00;46.20
3001;DHT22;1510;51.072;6.678;2022-08-19T09:24:00;25.50;43.20
3001;DHT22;1510;51.072;6.678;2022-08-19T09:26:27;25.70;39.50
3001;DHT22;1510;51.072;6.678;2022-08-19T09:28:54;26.30;36.90
3001;DHT22;1510;51.072;6.678;2022-08-19T09:31:26;27.00;34.40
3001;DHT22;1510;51.072;6.678;2022-08-19T09:33:54;26.90;32.00
3001;DHT22;1510;51.072;6.678;2022-08-19T09:36:30;27.40;32.30
3001;DHT22;1510;51.072;6.678;2022-08-19T09:38:59;26.80;30.60
3001;DHT22;1510;51.072;6.678;2022-08-19T09:41:27;26.90;32.00
3001;DHT22;1510;51.072;6.678;2022-08-19T09:43:58;27.00;32.10
3001;DHT22;1510;51.072;6.678;2022-08-19T09:46:34;26.70;33.70
3001;DHT22;1510;51.072;6.678;2022-08-19T09:49:06;27.30;29.80
3001;DHT22;1510;51.072;6.678;2022-08-19T09:51:33;27.10;32.20
3001;DHT22;1510;51.072;6.678;2022-08-19T09:54:05;27.40;27.70
3001;DHT22;1510;51.072;6.678;2022-08-19T09:56:32;27.20;30.00
3001;DHT22;1510;51.072;6.678;2022-08-19T09:59:00;26.50;29.70
3001;DHT22;1510;51.072;6.678;2022-08-19T10:01:29;26.80;32.00
3001;DHT22;1510;51.072;6.678;2022-08-19T10:07:21;26.30;31.50
3001;DHT22;1510;51.072;6.678;2022-08-19T10:10:11;26.10;31.40
3001;DHT22;1510;51.072;6.678;2022-08-19T10:13:13;25.70;32.70
3001;DHT22;1510;51.072;6.678;2022-08-19T10:23:41;26.10;31.40
3001;DHT22;1510;51.072;6.678;2022-08-19T10:27:03;26.60;29.20
3001;DHT22;1510;51.072;6.678;2022-08-19T10:30:43;26.60;29.50
3001;DHT22;1510;51.072;6.678;2022-08-19T10:44:44;27.50;26.10
3001;DHT22;1510;51.072;6.678;2022-08-19T10:48:23;26.90;24.80
3001;DHT22;1510;51.072;6.678;2022-08-19T10:55:24;27.90;22.50
3001;DHT22;1510;51.072;6.678;2022-08-19T10:58:12;28.30;17.60
3001;DHT22;1510;51.072;6.678;2022-08-19T11:01:26;28.80;17.60
3001;DHT22;1510;51.072;6.678;2022-08-19T11:04:43;28.90;16.00
3001;DHT22;1510;51.072;6.678;2022-08-19T11:07:27;29.30;15.00
3001;DHT22;1510;51.072;6.678;2022-08-19T11:09:54;29.30;14.90
3001;DHT22;1510;51.072;6.678;2022-08-19T11:12:20;29.60;12.90
3001;DHT22;1510;51.072;6.678;2022-08-19T11:14:47;29.90;12.30
3001;DHT22;1510;51.072;6.678;2022-08-19T11:17:16;30.40;11.10
3001;DHT22;1510;51.072;6.678;2022-08-19T11:19:43;31.50;6.90
3001;DHT22;1510;51.072;6.678;2022-08-19T11:22:10;31.10;6.70
3001;DHT22;1510;51.072;6.678;2022-08-19T11:24:37;31.60;5.10
3001;DHT22;1510;51.072;6.678;2022-08-19T11:27:06;31.60;3.10
3001;DHT22;1510;51.072;6.678;2022-08-19T11:29:35;31.30;3.70
3001;DHT22;1510;51.072;6.678;2022-08-19T11:32:04;30.70;5.00
3001;DHT22;1510;51.072;6.678;2022-08-19T11:34:33;29.40;7.20
3001;DHT22;1510;51.072;6.678;2022-08-19T11:37:01;28.90;9.30
3001;DHT22;1510;51.072;6.678;2022-08-19T11:39:30;30.20;10.00
3001;DHT22;1510;51.072;6.678;2022-08-19T11:41:58;30.30;6.20
3001;DHT22;1510;51.072;6.678;2022-08-19T11:44:26;29.50;8.10
3001;DHT22;1510;51.072;6.678;2022-08-19T11:46:54;28.80;10.20
3001;DHT22;1510;51.072;6.678;2022-08-19T11:49:21;28.40;11.30
3001;DHT22;1510;51.072;6.678;2022-08-19T11:51:49;29.00;10.30
3001;DHT22;1510;51.072;6.678;2022-08-19T11:54:17;29.20;7.50
3001;DHT22;1510;51.072;6.678;2022-08-19T11:56:44;28.20;8.90
3001;DHT22;1510;51.072;6.678;2022-08-19T11:59:13;28.10;11.50
3001;DHT22;1510;51.072;6.678;2022-08-19T12:01:40;27.80;13.00
3001;DHT22;1510;51.072;6.678;2022-08-19T12:04:08;28.60;9.30
3001;DHT22;1510;51.072;6.678;2022-08-19T12:06:38;29.90;6.30
3001;DHT22;1510;51.072;6.678;2022-08-19T12:09:08;31.30;2.00
3001;DHT22;1510;51.072;6.678;2022-08-19T12:11:37;31.30;1.20
3001;DHT22;1510;51.072;6.678;2022-08-19T12:14:05;31.70;1.00
3001;DHT22;1510;51.072;6.678;2022-08-19T12:16:32;30.60;2.10
3001;DHT22;1510;51.072;6.678;2022-08-19T12:18:59;30.60;2.30
3001;DHT22;1510;51.072;6.678;2022-08-19T12:21:29;29.30;2.60
3001;DHT22;1510;51.072;6.678;2022-08-19T12:23:57;28.80;6.80
3001;DHT22;1510;51.072;6.678;2022-08-19T12:26:27;28.10;5.90
3001;DHT22;1510;51.072;6.678;2022-08-19T12:28:54;27.70;7.40
3001;DHT22;1510;51.072;6.678;2022-08-19T12:31:21;27.60;5.40
3001;DHT22;1510;51.072;6.678;2022-08-19T12:33:48;28.50;4.60
3001;DHT22;1510;51.072;6.678;2022-08-19T12:36:15;28.40;2.10
3001;DHT22;1510;51.072;6.678;2022-08-19T12:38:43;28.40;3.70
3001;DHT22;1510;51.072;6.678;2022-08-19T12:41:13;28.60;4.00
3001;DHT22;1510;51.072;6.678;2022-08-19T12:43:45;28.40;4.80
3001;DHT22;1510;51.072;6.678;2022-08-19T12:46:14;28.60;3.50
3001;DHT22;1510;51.072;6.678;2022-08-19T12:48:41;29.10;2.50
3001;DHT22;1510;51.072;6.678;2022-08-19T12:51:12;30.10;1.00
3001;DHT22;1510;51.072;6.678;2022-08-19T12:53:40;29.70;1.00
3001;DHT22;1510;51.072;6.678;2022-08-19T12:56:08;30.50;1.00
3001;DHT22;1510;51.072;6.678;2022-08-19T12:58:35;30.70;1.00
3001;DHT22;1510;51.072;6.678;2022-08-19T13:01:09;31.40;1.00
3001;DHT22;1510;51.072;6.678;2022-08-19T13:03:36;32.60;1.00
3001;DHT22;1510;51.072;6.678;2022-08-19T13:06:03;32.00;1.00
3001;DHT22;1510;51.072;6.678;2022-08-19T13:08:30;30.70;1.00
3001;DHT22;1510;51.072;6.678;2022-08-19T13:10:57;30.90;1.00
3001;DHT22;1510;51.072;6.678;2022-08-19T13:13:25;31.40;1.00
3001;DHT22;1510;51.072;6.678;2022-08-19T13:15:52;32.40;1.00
3001;DHT22;1510;51.072;6.678;2022-08-19T13:18:20;33.10;1.00
3001;DHT22;1510;51.072;6.678;2022-08-19T13:20:47;33.10;1.00
3001;DHT22;1510;51.072;6.678;2022-08-19T13:23:14;32.60;1.00
3001;DHT22;1510;51.072;6.678;2022-08-19T13:25:40;32.70;1.00
3001;DHT22;1510;51.072;6.678;2022-08-19T13:31:39;32.40;1.00
3001;DHT22;1510;51.072;6.678;2022-08-19T13:34:29;32.70;1.00
3001;DHT22;1510;51.072;6.678;2022-08-19T13:36:57;33.20;1.00
3001;DHT22;1510;51.072;6.678;2022-08-19T13:39:24;32.90;1.00
3001;DHT22;1510;51.072;6.678;2022-08-19T13:41:51;33.10;1.00
3001;DHT22;1510;51.072;6.678;2022-08-19T13:44:19;31.50;1.00
3001;DHT22;1510;51.072;6.678;2022-08-19T13:46:46;31.20;1.00
3001;DHT22;1510;51.072;6.678;2022-08-19T13:49:14;31.10;1.00
3001;DHT22;1510;51.072;6.678;2022-08-19T13:51:43;31.20;1.00
3001;DHT22;1510;51.072;6.678;2022-08-19T13:54:11;31.50;1.00
3001;DHT22;1510;51.072;6.678;2022-08-19T13:56:40;30.70;1.00
3001;DHT22;1510;51.072;6.678;2022-08-19T13:59:07;31.20;1.00
3001;DHT22;1510;51.072;6.678;2022-08-19T14:01:34;31.20;1.00
3001;DHT22;1510;51.072;6.678;2022-08-19T14:04:01;31.70;1.00
3001;DHT22;1510;51.072;6.678;2022-08-19T14:06:28;32.40;1.00
3001;DHT22;1510;51.072;6.678;2022-08-19T14:08:56;32.00;1.00
3001;DHT22;1510;51.072;6.678;2022-08-19T14:11:23;32.30;1.00
3001;DHT22;1510;51.072;6.678;2022-08-19T14:13:57;32.80;1.00
3001;DHT22;1510;51.072;6.678;2022-08-19T14:16:23;31.30;1.00
3001;DHT22;1510;51.072;6.678;2022-08-19T14:18:50;31.10;1.00
3001;DHT22;1510;51.072;6.678;2022-08-19T14:21:20;30.90;1.00
3001;DHT22;1510;51.072;6.678;2022-08-19T14:23:59;30.90;1.00
3001;DHT22;1510;51.072;6.678;2022-08-19T14:26:26;31.70;1.00
3001;DHT22;1510;51.072;6.678;2022-08-19T14:29:14;32.20;1.00
3001;DHT22;1510;51.072;6.678;2022-08-19T14:31:41;31.70;1.00
3001;DHT22;1510;51.072;6.678;2022-08-19T14:34:08;32.00;1.00
3001;DHT22;1510;51.072;6.678;2022-08-19T14:36:36;31.90;1.00
3001;DHT22;1510;51.072;6.678;2022-08-19T14:39:04;32.30;1.00
3001;DHT22;1510;51.072;6.678;2022-08-19T14:41:31;32.60;1.00
3001;DHT22;1510;51.072;6.678;2022-08-19T14:43:59;32.00;1.00
3001;DHT22;1510;51.072;6.678;2022-08-19T14:46:28;31.80;1.00
3001;DHT22;1510;51.072;6.678;2022-08-19T14:48:55;31.50;1.00
3001;DHT22;1510;51.072;6.678;2022-08-19T14:51:24;31.90;1.00
3001;DHT22;1510;51.072;6.678;2022-08-19T14:53:51;31.70;1.00
3001;DHT22;1510;51.072;6.678;2022-08-19T14:56:23;30.90;1.00
3001;DHT22;1510;51.072;6.678;2022-08-19T14:58:50;30.50;1.00
3001;DHT22;1510;51.072;6.678;2022-08-19T15:01:19;29.70;1.00
3001;DHT22;1510;51.072;6.678;2022-08-19T15:03:47;29.90;1.00
3001;DHT22;1510;51.072;6.678;2022-08-19T15:06:15;29.50;1.00
3001;DHT22;1510;51.072;6.678;2022-08-19T15:08:42;29.80;1.00
3001;DHT22;1510;51.072;6.678;2022-08-19T15:11:27;30.70;1.00
3001;DHT22;1510;51.072;6.678;2022-08-19T15:13:54;30.50;1.00
3001;DHT22;1510;51.072;6.678;2022-08-19T15:16:27;30.70;1.00
3001;DHT22;1510;51.072;6.678;2022-08-19T15:18:55;31.20;1.00
3001;DHT22;1510;51.072;6.678;2022-08-19T15:21:23;31.60;1.00
3001;DHT22;1510;51.072;6.678;2022-08-19T15:23:50;30.50;1.00
3001;DHT22;1510;51.072;6.678;2022-08-19T15:26:18;30.20;1.00
3001;DHT22;1510;51.072;6.678;2022-08-19T15:28:51;30.30;1.00
3001;DHT22;1510;51.072;6.678;2022-08-19T15:31:20;30.40;1.00
3001;DHT22;1510;51.072;6.678;2022-08-19T15:33:47;31.30;1.00
3001;DHT22;1510;51.072;6.678;2022-08-19T15:36:15;30.70;1.00
3001;DHT22;1510;51.072;6.678;2022-08-19T15:38:42;30.00;1.00
3001;DHT22;1510;51.072;6.678;2022-08-19T15:41:22;28.50;1.00
3001;DHT22;1510;51.072;6.678;2022-08-19T15:43:58;27.80;2.50
3001;DHT22;1510;51.072;6.678;2022-08-19T15:46:28;27.00;5.70
3001;DHT22;1510;51.072;6.678;2022-08-19T15:48:57;26.80;8.10
3001;DHT22;1510;51.072;6.678;2022-08-19T15:51:24;26.50;8.90
3001;DHT22;1510;51.072;6.678;2022-08-19T15:53:51;26.40;10.20
3001;DHT22;1510;51.072;6.678;2022-08-19T15:56:19;26.20;10.20
3001;DHT22;1510;51.072;6.678;2022-08-19T15:58:46;26.10;11.60
3001;DHT22;1510;51.072;6.678;2022-08-19T16:01:55;26.00;12.30
3001;DHT22;1510;51.072;6.678;2022-08-19T16:04:39;25.90;14.00
3001;DHT22;1510;51.072;6.678;2022-08-19T16:07:23;26.00;13.60
3001;DHT22;1510;51.072;6.678;2022-08-19T16:09:52;25.70;14.90
3001;DHT22;1510;51.072;6.678;2022-08-19T16:12:39;25.60;15.60
3001;DHT22;1510;51.072;6.678;2022-08-19T16:15:07;25.60;16.10
3001;DHT22;1510;51.072;6.678;2022-08-19T16:21:05;25.50;18.10
3001;DHT22;1510;51.072;6.678;2022-08-19T16:23:54;25.30;20.10
3001;DHT22;1510;51.072;6.678;2022-08-19T16:26:50;25.10;21.20
3001;DHT22;1510;51.072;6.678;2022-08-19T16:29:23;24.90;22.40
3001;DHT22;1510;51.072;6.678;2022-08-19T16:32:14;24.90;22.80
3001;DHT22;1510;51.072;6.678;2022-08-19T16:34:42;24.90;23.20
3001;DHT22;1510;51.072;6.678;2022-08-19T16:37:10;24.90;23.20
3001;DHT22;1510;51.072;6.678;2022-08-19T16:39:37;24.80;24.40
3001;DHT22;1510;51.072;6.678;2022-08-19T16:42:06;24.90;25.50
3001;DHT22;1510;51.072;6.678;2022-08-19T16:44:33;24.70;25.80
3001;DHT22;1510;51.072;6.678;2022-08-19T16:47:00;24.70;26.10
3001;DHT22;1510;51.072;6.678;2022-08-19T16:49:28;24.50;26.30
3001;DHT22;1510;51.072;6.678;2022-08-19T16:51:55;24.50;26.90
3001;DHT22;1510;51.072;6.678;2022-08-19T16:54:26;24.50;27.40
3001;DHT22;1510;51.072;6.678;2022-08-19T16:56:55;24.50;28.00
3001;DHT22;1510;51.072;6.678;2022-08-19T16:59:24;24.60;28.70
3001;DHT22;1510;51.072;6.678;2022-08-19T17:02:13;24.40;28.50
3001;DHT22;1510;51.072;6.678;2022-08-19T17:05:17;24.50;28.30
3001;DHT22;1510;51.072;6.678;2022-08-19T17:07:53;24.50;30.00